sensor_id;sensor_type;location;lat;lon;timestamp;P1;durP1;ratioP1;P2;durP2;ratioP2
27704;SDS011;15109;50.992;6.918;2022-07-06T00:00:04;1.00;;;0.60;;
27704;SDS011;15109;50.992;6.918;2022-07-06T00:03:26;0.30;;;0.30;;
27704;SDS011;15109;50.992;6.918;2022-07-06T00:06:47;0.20;;;0.20;;
27704;SDS011;15109;50.992;6.918;2022-07-06T00:10:08;1.85;;;0.73;;
27704;SDS011;15109;50.992;6.918;2022-07-06T00:13:29;0.30;;;0.30;;
27704;SDS011;15109;50.992;6.918;2022-07-06T00:16:50;0.40;;;0.35;;
27704;SDS011;15109;50.992;6.918;2022-07-06T00:20:11;0.80;;;0.52;;
27704;SDS011;15109;50.992;6.918;2022-07-06T00:23:33;0.63;;;0.28;;
27704;SDS011;15109;50.992;6.918;2022-07-06T00:26:54;0.77;;;0.40;;
27704;SDS011;15109;50.992;6.918;2022-07-06T00:30:15;1.55;;;0.60;;
27704;SDS011;15109;50.992;6.918;2022-07-06T00:33:36;2.83;;;0.65;;
27704;SDS011;15109;50.992;6.918;2022-07-06T00:36:57;1.75;;;0.90;;
27704;SDS011;15109;50.992;6.918;2022-07-06T00:40:18;0.93;;;0.40;;
27704;SDS011;15109;50.992;6.918;2022-07-06T00:43:46;0.38;;;0.38;;
27704;SDS011;15109;50.992;6.918;2022-07-06T00:47:11;2.50;;;0.63;;
27704;SDS011;15109;50.992;6.918;2022-07-06T00:50:32;0.52;;;0.40;;
27704;SDS011;15109;50.992;6.918;2022-07-06T00:53:54;1.65;;;0.63;;
27704;SDS011;15109;50.992;6.918;2022-07-06T00:57:17;0.30;;;0.30;;
27704;SDS011;15109;50.992;6.918;2022-07-06T01:00:39;0.95;;;0.52;;
27704;SDS011;15109;50.992;6.918;2022-07-06T01:04:05;1.33;;;0.65;;
27704;SDS011;15109;50.992;6.918;2022-07-06T01:07:26;1.00;;;0.77;;
27704;SDS011;15109;50.992;6.918;2022-07-06T01:10:48;1.73;;;0.60;;
27704;SDS011;15109;50.992;6.918;2022-07-06T01:14:11;1.42;;;0.82;;
27704;SDS011;15109;50.992;6.918;2022-07-06T01:17:33;0.95;;;0.63;;
27704;SDS011;15109;50.992;6.918;2022-07-06T01:21:11;0.85;;;0.60;;
27704;SDS011;15109;50.992;6.918;2022-07-06T01:24:37;0.50;;;0.50;;
27704;SDS011;15109;50.992;6.918;2022-07-06T01:27:58;0.52;;;0.52;;
27704;SDS011;15109;50.992;6.918;2022-07-06T01:31:20;1.85;;;0.70;;
27704;SDS011;15109;50.992;6.918;2022-07-06T01:34:42;1.17;;;0.70;;
27704;SDS011;15109;50.992;6.918;2022-07-06T01:38:03;1.15;;;0.60;;
27704;SDS011;15109;50.992;6.918;2022-07-06T01:41:25;0.68;;;0.60;;
27704;SDS011;15109;50.992;6.918;2022-07-06T01:44:46;0.55;;;0.40;;
27704;SDS011;15109;50.992;6.918;2022-07-06T01:48:08;1.13;;;0.68;;
27704;SDS011;15109;50.992;6.918;2022-07-06T01:51:29;1.98;;;0.52;;
27704;SDS011;15109;50.992;6.918;2022-07-06T01:54:53;1.75;;;0.73;;
27704;SDS011;15109;50.992;6.918;2022-07-06T01:58:15;0.65;;;0.55;;
27704;SDS011;15109;50.992;6.918;2022-07-06T02:01:37;2.33;;;0.70;;
27704;SDS011;15109;50.992;6.918;2022-07-06T02:04:58;2.90;;;0.85;;
27704;SDS011;15109;50.992;6.918;2022-07-06T02:08:19;1.48;;;1.00;;
27704;SDS011;15109;50.992;6.918;2022-07-06T02:11:40;1.10;;;0.57;;
27704;SDS011;15109;50.992;6.918;2022-07-06T02:15:01;0.68;;;0.55;;
27704;SDS011;15109;50.992;6.918;2022-07-06T02:18:22;3.50;;;0.90;;
27704;SDS011;15109;50.992;6.918;2022-07-06T02:21:44;1.00;;;0.77;;
27704;SDS011;15109;50.992;6.918;2022-07-06T02:25:06;8.15;;;0.88;;
27704;SDS011;15109;50.992;6.918;2022-07-06T02:28:28;1.35;;;0.82;;
27704;SDS011;15109;50.992;6.918;2022-07-06T02:31:49;1.05;;;0.90;;
27704;SDS011;15109;50.992;6.918;2022-07-06T02:35:10;0.70;;;0.65;;
27704;SDS011;15109;50.992;6.918;2022-07-06T02:38:32;1.35;;;0.85;;
27704;SDS011;15109;50.992;6.918;2022-07-06T02:41:55;1.45;;;0.77;;
27704;SDS011;15109;50.992;6.918;2022-07-06T02:45:16;0.95;;;0.60;;
27704;SDS011;15109;50.992;6.918;2022-07-06T02:48:37;1.08;;;0.80;;
27704;SDS011;15109;50.992;6.918;2022-07-06T02:52:00;0.93;;;0.73;;
27704;SDS011;15109;50.992;6.918;2022-07-06T02:55:21;1.40;;;0.73;;
27704;SDS011;15109;50.992;6.918;2022-07-06T02:58:44;1.63;;;0.82;;
27704;SDS011;15109;50.992;6.918;2022-07-06T03:02:07;0.45;;;0.45;;
27704;SDS011;15109;50.992;6.918;2022-07-06T03:05:28;1.90;;;0.88;;
27704;SDS011;15109;50.992;6.918;2022-07-06T03:08:49;2.22;;;1.00;;
27704;SDS011;15109;50.992;6.918;2022-07-06T03:12:11;1.05;;;0.73;;
27704;SDS011;15109;50.992;6.918;2022-07-06T03:15:33;1.02;;;0.70;;
27704;SDS011;15109;50.992;6.918;2022-07-06T03:18:54;3.20;;;1.30;;
27704;SDS011;15109;50.992;6.918;2022-07-06T03:22:15;0.55;;;0.40;;
27704;SDS011;15109;50.992;6.918;2022-07-06T03:25:37;2.63;;;0.90;;
27704;SDS011;15109;50.992;6.918;2022-07-06T03:28:58;0.55;;;0.43;;
27704;SDS011;15109;50.992;6.918;2022-07-06T03:32:19;2.58;;;1.02;;
27704;SDS011;15109;50.992;6.918;2022-07-06T03:35:42;1.15;;;0.65;;
27704;SDS011;15109;50.992;6.918;2022-07-06T03:39:05;1.35;;;0.88;;
27704;SDS011;15109;50.992;6.918;2022-07-06T03:42:29;1.02;;;0.80;;
27704;SDS011;15109;50.992;6.918;2022-07-06T03:45:51;0.77;;;0.50;;
27704;SDS011;15109;50.992;6.918;2022-07-06T03:49:12;0.88;;;0.57;;
27704;SDS011;15109;50.992;6.918;2022-07-06T03:52:34;0.88;;;0.68;;
27704;SDS011;15109;50.992;6.918;2022-07-06T03:56:00;1.40;;;0.77;;
27704;SDS011;15109;50.992;6.918;2022-07-06T03:59:40;0.68;;;0.60;;
27704;SDS011;15109;50.992;6.918;2022-07-06T04:03:01;1.10;;;0.55;;
27704;SDS011;15109;50.992;6.918;2022-07-06T04:06:27;0.90;;;0.80;;
27704;SDS011;15109;50.992;6.918;2022-07-06T04:09:48;0.90;;;0.65;;
27704;SDS011;15109;50.992;6.918;2022-07-06T04:13:09;4.32;;;1.13;;
27704;SDS011;15109;50.992;6.918;2022-07-06T04:16:31;0.90;;;0.70;;
27704;SDS011;15109;50.992;6.918;2022-07-06T04:19:52;3.60;;;1.15;;
27704;SDS011;15109;50.992;6.918;2022-07-06T04:23:13;2.40;;;0.90;;
27704;SDS011;15109;50.992;6.918;2022-07-06T04:26:35;2.00;;;0.98;;
27704;SDS011;15109;50.992;6.918;2022-07-06T04:29:56;2.90;;;1.48;;
27704;SDS011;15109;50.992;6.918;2022-07-06T04:33:17;1.30;;;0.80;;
27704;SDS011;15109;50.992;6.918;2022-07-06T04:36:40;1.85;;;1.00;;
27704;SDS011;15109;50.992;6.918;2022-07-06T04:40:01;1.60;;;0.90;;
27704;SDS011;15109;50.992;6.918;2022-07-06T04:43:24;4.30;;;1.25;;
27704;SDS011;15109;50.992;6.918;2022-07-06T04:46:46;1.23;;;0.77;;
27704;SDS011;15109;50.992;6.918;2022-07-06T04:50:07;2.45;;;0.98;;
27704;SDS011;15109;50.992;6.918;2022-07-06T04:53:30;1.95;;;1.17;;
27704;SDS011;15109;50.992;6.918;2022-07-06T04:56:51;2.50;;;1.35;;
27704;SDS011;15109;50.992;6.918;2022-07-06T05:00:13;1.80;;;0.80;;
27704;SDS011;15109;50.992;6.918;2022-07-06T05:03:36;2.47;;;1.38;;
27704;SDS011;15109;50.992;6.918;2022-07-06T05:07:01;1.70;;;1.17;;
27704;SDS011;15109;50.992;6.918;2022-07-06T05:10:23;1.60;;;0.82;;
27704;SDS011;15109;50.992;6.918;2022-07-06T05:13:48;2.10;;;1.08;;
27704;SDS011;15109;50.992;6.918;2022-07-06T05:17:10;3.13;;;1.15;;
27704;SDS011;15109;50.992;6.918;2022-07-06T05:20:32;3.65;;;1.25;;
27704;SDS011;15109;50.992;6.918;2022-07-06T05:23:55;2.08;;;0.77;;
27704;SDS011;15109;50.992;6.918;2022-07-06T05:27:16;1.10;;;0.68;;
27704;SDS011;15109;50.992;6.918;2022-07-06T05:30:37;1.23;;;0.70;;
27704;SDS011;15109;50.992;6.918;2022-07-06T05:33:59;9.55;;;1.35;;
27704;SDS011;15109;50.992;6.918;2022-07-06T05:37:20;2.08;;;1.27;;
27704;SDS011;15109;50.992;6.918;2022-07-06T05:40:42;1.58;;;0.80;;
27704;SDS011;15109;50.992;6.918;2022-07-06T05:44:03;1.23;;;0.80;;
27704;SDS011;15109;50.992;6.918;2022-07-06T05:47:25;1.98;;;1.00;;
27704;SDS011;15109;50.992;6.918;2022-07-06T05:51:04;1.08;;;0.60;;
27704;SDS011;15109;50.992;6.918;2022-07-06T05:54:26;2.75;;;1.23;;
27704;SDS011;15109;50.992;6.918;2022-07-06T05:57:48;0.50;;;0.50;;
27704;SDS011;15109;50.992;6.918;2022-07-06T06:01:11;1.58;;;1.08;;
27704;SDS011;15109;50.992;6.918;2022-07-06T06:04:35;2.60;;;1.10;;
27704;SDS011;15109;50.992;6.918;2022-07-06T06:07:56;2.00;;;0.88;;
27704;SDS011;15109;50.992;6.918;2022-07-06T06:11:19;1.30;;;0.82;;
27704;SDS011;15109;50.992;6.918;2022-07-06T06:14:41;1.17;;;0.73;;
27704;SDS011;15109;50.992;6.918;2022-07-06T06:18:02;1.75;;;0.90;;
27704;SDS011;15109;50.992;6.918;2022-07-06T06:21:24;1.58;;;0.82;;
27704;SDS011;15109;50.992;6.918;2022-07-06T06:24:45;1.98;;;0.80;;
27704;SDS011;15109;50.992;6.918;2022-07-06T06:28:07;2.03;;;0.60;;
27704;SDS011;15109;50.992;6.918;2022-07-06T06:31:29;1.73;;;0.60;;
27704;SDS011;15109;50.992;6.918;2022-07-06T06:34:50;0.63;;;0.30;;
27704;SDS011;15109;50.992;6.918;2022-07-06T06:38:11;0.30;;;0.30;;
27704;SDS011;15109;50.992;6.918;2022-07-06T06:41:33;0.90;;;0.50;;
27704;SDS011;15109;50.992;6.918;2022-07-06T06:44:54;0.20;;;0.20;;
27704;SDS011;15109;50.992;6.918;2022-07-06T06:48:15;1.65;;;0.40;;
27704;SDS011;15109;50.992;6.918;2022-07-06T06:51:38;0.75;;;0.52;;
27704;SDS011;15109;50.992;6.918;2022-07-06T06:55:00;8.98;;;0.65;;
27704;SDS011;15109;50.992;6.918;2022-07-06T06:58:21;0.40;;;0.20;;
27704;SDS011;15109;50.992;6.918;2022-07-06T07:01:42;0.50;;;0.25;;
27704;SDS011;15109;50.992;6.918;2022-07-06T07:05:03;1.00;;;0.50;;
27704;SDS011;15109;50.992;6.918;2022-07-06T07:08:25;0.60;;;0.40;;
27704;SDS011;15109;50.992;6.918;2022-07-06T07:11:46;0.77;;;0.45;;
27704;SDS011;15109;50.992;6.918;2022-07-06T07:15:07;0.30;;;0.20;;
27704;SDS011;15109;50.992;6.918;2022-07-06T07:18:28;1.80;;;0.60;;
27704;SDS011;15109;50.992;6.918;2022-07-06T07:21:49;1.45;;;0.70;;
27704;SDS011;15109;50.992;6.918;2022-07-06T07:25:10;0.40;;;0.35;;
27704;SDS011;15109;50.992;6.918;2022-07-06T07:28:31;1.00;;;0.65;;
27704;SDS011;15109;50.992;6.918;2022-07-06T07:31:53;0.20;;;0.15;;
27704;SDS011;15109;50.992;6.918;2022-07-06T07:35:14;0.30;;;0.30;;
27704;SDS011;15109;50.992;6.918;2022-07-06T07:38:35;0.65;;;0.43;;
27704;SDS011;15109;50.992;6.918;2022-07-06T07:41:56;0.10;;;0.10;;
27704;SDS011;15109;50.992;6.918;2022-07-06T07:45:17;0.20;;;0.20;;
27704;SDS011;15109;50.992;6.918;2022-07-06T07:48:38;0.40;;;0.40;;
27704;SDS011;15109;50.992;6.918;2022-07-06T07:52:00;0.43;;;0.38;;
27704;SDS011;15109;50.992;6.918;2022-07-06T07:55:21;1.73;;;0.52;;
27704;SDS011;15109;50.992;6.918;2022-07-06T07:58:42;0.10;;;0.10;;
27704;SDS011;15109;50.992;6.918;2022-07-06T08:02:05;3.00;;;0.77;;
27704;SDS011;15109;50.992;6.918;2022-07-06T08:05:27;0.35;;;0.30;;
27704;SDS011;15109;50.992;6.918;2022-07-06T08:08:48;0.82;;;0.52;;
27704;SDS011;15109;50.992;6.918;2022-07-06T08:12:09;0.10;;;0.10;;
27704;SDS011;15109;50.992;6.918;2022-07-06T08:15:30;1.20;;;0.40;;
27704;SDS011;15109;50.992;6.918;2022-07-06T08:18:52;0.30;;;0.22;;
27704;SDS011;15109;50.992;6.918;2022-07-06T08:22:13;0.63;;;0.40;;
27704;SDS011;15109;50.992;6.918;2022-07-06T08:25:34;0.28;;;0.28;;
27704;SDS011;15109;50.992;6.918;2022-07-06T08:28:55;0.90;;;0.47;;
27704;SDS011;15109;50.992;6.918;2022-07-06T08:32:16;2.80;;;0.47;;
27704;SDS011;15109;50.992;6.918;2022-07-06T08:35:37;0.77;;;0.30;;
27704;SDS011;15109;50.992;6.918;2022-07-06T08:38:58;0.65;;;0.30;;
27704;SDS011;15109;50.992;6.918;2022-07-06T08:42:19;0.80;;;0.32;;
27704;SDS011;15109;50.992;6.918;2022-07-06T08:45:42;0.50;;;0.22;;
27704;SDS011;15109;50.992;6.918;2022-07-06T08:49:07;1.17;;;0.30;;
27704;SDS011;15109;50.992;6.918;2022-07-06T08:52:29;0.10;;;0.10;;
27704;SDS011;15109;50.992;6.918;2022-07-06T08:55:50;1.27;;;0.45;;
27704;SDS011;15109;50.992;6.918;2022-07-06T08:59:11;0.10;;;0.10;;
27704;SDS011;15109;50.992;6.918;2022-07-06T09:02:33;0.68;;;0.35;;
27704;SDS011;15109;50.992;6.918;2022-07-06T09:05:56;1.77;;;0.47;;
27704;SDS011;15109;50.992;6.918;2022-07-06T09:09:20;2.88;;;0.35;;
27704;SDS011;15109;50.992;6.918;2022-07-06T09:12:44;0.30;;;0.13;;
27704;SDS011;15109;50.992;6.918;2022-07-06T09:16:12;0.10;;;0.10;;
27704;SDS011;15109;50.992;6.918;2022-07-06T09:19:34;0.30;;;0.22;;
27704;SDS011;15109;50.992;6.918;2022-07-06T09:23:00;0.52;;;0.30;;
27704;SDS011;15109;50.992;6.918;2022-07-06T09:26:23;0.55;;;0.35;;
27704;SDS011;15109;50.992;6.918;2022-07-06T09:29:45;0.10;;;0.10;;
27704;SDS011;15109;50.992;6.918;2022-07-06T09:33:06;0.22;;;0.22;;
27704;SDS011;15109;50.992;6.918;2022-07-06T09:36:44;0.08;;;0.08;;
27704;SDS011;15109;50.992;6.918;2022-07-06T09:40:15;0.40;;;0.20;;
27704;SDS011;15109;50.992;6.918;2022-07-06T09:43:39;3.55;;;0.40;;
27704;SDS011;15109;50.992;6.918;2022-07-06T09:47:01;0.85;;;0.30;;
27704;SDS011;15109;50.992;6.918;2022-07-06T09:50:24;0.20;;;0.20;;
27704;SDS011;15109;50.992;6.918;2022-07-06T09:53:45;4.57;;;0.32;;
27704;SDS011;15109;50.992;6.918;2022-07-06T09:57:13;0.98;;;0.32;;
27704;SDS011;15109;50.992;6.918;2022-07-06T10:00:34;0.47;;;0.30;;
27704;SDS011;15109;50.992;6.918;2022-07-06T10:03:55;7.88;;;0.38;;
27704;SDS011;15109;50.992;6.918;2022-07-06T10:07:16;0.10;;;0.10;;
27704;SDS011;15109;50.992;6.918;2022-07-06T10:10:39;0.15;;;0.15;;
27704;SDS011;15109;50.992;6.918;2022-07-06T10:14:01;0.55;;;0.40;;
27704;SDS011;15109;50.992;6.918;2022-07-06T10:17:25;1.88;;;0.50;;
27704;SDS011;15109;50.992;6.918;2022-07-06T10:20:46;0.20;;;0.20;;
27704;SDS011;15109;50.992;6.918;2022-07-06T10:24:08;1.10;;;0.32;;
27704;SDS011;15109;50.992;6.918;2022-07-06T10:27:33;0.95;;;0.30;;
27704;SDS011;15109;50.992;6.918;2022-07-06T10:30:56;0.38;;;0.38;;
27704;SDS011;15109;50.992;6.918;2022-07-06T10:34:18;0.50;;;0.25;;
27704;SDS011;15109;50.992;6.918;2022-07-06T10:37:40;0.43;;;0.38;;
27704;SDS011;15109;50.992;6.918;2022-07-06T10:41:10;0.95;;;0.40;;
27704;SDS011;15109;50.992;6.918;2022-07-06T10:44:34;0.30;;;0.20;;
27704;SDS011;15109;50.992;6.918;2022-07-06T10:54:55;0.20;;;0.20;;
27704;SDS011;15109;50.992;6.918;2022-07-06T11:02:15;0.55;;;0.25;;
27704;SDS011;15109;50.992;6.918;2022-07-06T11:05:41;0.60;;;0.30;;
27704;SDS011;15109;50.992;6.918;2022-07-06T11:09:10;0.20;;;0.20;;
27704;SDS011;15109;50.992;6.918;2022-07-06T11:12:31;0.60;;;0.40;;
27704;SDS011;15109;50.992;6.918;2022-07-06T11:16:02;0.57;;;0.28;;
27704;SDS011;15109;50.992;6.918;2022-07-06T11:19:23;0.15;;;0.05;;
27704;SDS011;15109;50.992;6.918;2022-07-06T11:22:46;0.20;;;0.20;;
27704;SDS011;15109;50.992;6.918;2022-07-06T11:26:07;0.65;;;0.43;;
27704;SDS011;15109;50.992;6.918;2022-07-06T11:29:30;0.50;;;0.40;;
27704;SDS011;15109;50.992;6.918;2022-07-06T11:32:51;0.35;;;0.32;;
27704;SDS011;15109;50.992;6.918;2022-07-06T11:36:19;1.00;;;0.22;;
27704;SDS011;15109;50.992;6.918;2022-07-06T11:39:42;1.33;;;0.57;;
27704;SDS011;15109;50.992;6.918;2022-07-06T11:43:04;0.20;;;0.20;;
27704;SDS011;15109;50.992;6.918;2022-07-06T11:49:50;1.30;;;0.43;;
27704;SDS011;15109;50.992;6.918;2022-07-06T11:53:14;0.30;;;0.28;;
27704;SDS011;15109;50.992;6.918;2022-07-06T11:56:35;0.20;;;0.20;;
27704;SDS011;15109;50.992;6.918;2022-07-06T11:59:57;0.98;;;0.40;;
27704;SDS011;15109;50.992;6.918;2022-07-06T12:03:18;0.63;;;0.30;;
27704;SDS011;15109;50.992;6.918;2022-07-06T12:06:39;0.30;;;0.30;;
27704;SDS011;15109;50.992;6.918;2022-07-06T12:10:00;0.35;;;0.28;;
27704;SDS011;15109;50.992;6.918;2022-07-06T12:13:21;0.15;;;0.15;;
27704;SDS011;15109;50.992;6.918;2022-07-06T12:16:43;0.20;;;0.20;;
27704;SDS011;15109;50.992;6.918;2022-07-06T12:20:04;0.65;;;0.38;;
27704;SDS011;15109;50.992;6.918;2022-07-06T12:23:37;1.02;;;0.50;;
27704;SDS011;15109;50.992;6.918;2022-07-06T12:30:45;1.65;;;0.30;;
27704;SDS011;15109;50.992;6.918;2022-07-06T12:34:12;0.25;;;0.25;;
27704;SDS011;15109;50.992;6.918;2022-07-06T12:37:55;2.33;;;0.50;;
27704;SDS011;15109;50.992;6.918;2022-07-06T12:41:25;0.40;;;0.22;;
27704;SDS011;15109;50.992;6.918;2022-07-06T12:44:47;0.30;;;0.30;;
27704;SDS011;15109;50.992;6.918;2022-07-06T12:48:09;0.10;;;0.10;;
27704;SDS011;15109;50.992;6.918;2022-07-06T12:51:47;0.32;;;0.32;;
27704;SDS011;15109;50.992;6.918;2022-07-06T12:55:12;0.25;;;0.15;;
27704;SDS011;15109;50.992;6.918;2022-07-06T12:58:35;0.30;;;0.25;;
27704;SDS011;15109;50.992;6.918;2022-07-06T13:01:57;0.13;;;0.13;;
27704;SDS011;15109;50.992;6.918;2022-07-06T13:05:18;1.00;;;0.40;;
27704;SDS011;15109;50.992;6.918;2022-07-06T13:08:50;0.47;;;0.40;;
27704;SDS011;15109;50.992;6.918;2022-07-06T13:12:11;1.55;;;0.38;;
27704;SDS011;15109;50.992;6.918;2022-07-06T13:15:32;0.28;;;0.13;;
27704;SDS011;15109;50.992;6.918;2022-07-06T13:18:53;1.70;;;0.60;;
27704;SDS011;15109;50.992;6.918;2022-07-06T13:22:14;0.45;;;0.20;;
27704;SDS011;15109;50.992;6.918;2022-07-06T13:25:35;1.10;;;0.57;;
27704;SDS011;15109;50.992;6.918;2022-07-06T13:28:56;5.70;;;0.50;;
27704;SDS011;15109;50.992;6.918;2022-07-06T13:32:17;0.15;;;0.13;;
27704;SDS011;15109;50.992;6.918;2022-07-06T13:35:38;0.28;;;0.22;;
27704;SDS011;15109;50.992;6.918;2022-07-06T13:39:00;0.38;;;0.28;;
27704;SDS011;15109;50.992;6.918;2022-07-06T13:42:21;0.57;;;0.30;;
27704;SDS011;15109;50.992;6.918;2022-07-06T13:45:42;1.42;;;0.43;;
27704;SDS011;15109;50.992;6.918;2022-07-06T13:49:03;0.50;;;0.32;;
27704;SDS011;15109;50.992;6.918;2022-07-06T13:52:25;0.10;;;0.10;;
27704;SDS011;15109;50.992;6.918;2022-07-06T13:55:46;0.68;;;0.40;;
27704;SDS011;15109;50.992;6.918;2022-07-06T13:59:07;0.20;;;0.20;;
27704;SDS011;15109;50.992;6.918;2022-07-06T14:02:28;0.22;;;0.17;;
27704;SDS011;15109;50.992;6.918;2022-07-06T14:05:49;0.28;;;0.20;;
27704;SDS011;15109;50.992;6.918;2022-07-06T14:09:10;0.90;;;0.45;;
27704;SDS011;15109;50.992;6.918;2022-07-06T14:12:31;0.17;;;0.13;;
27704;SDS011;15109;50.992;6.918;2022-07-06T14:15:53;1.10;;;0.43;;
27704;SDS011;15109;50.992;6.918;2022-07-06T14:19:14;0.20;;;0.20;;
27704;SDS011;15109;50.992;6.918;2022-07-06T14:22:35;0.55;;;0.30;;
27704;SDS011;15109;50.992;6.918;2022-07-06T14:25:57;0.20;;;0.20;;
27704;SDS011;15109;50.992;6.918;2022-07-06T14:29:18;1.30;;;0.32;;
27704;SDS011;15109;50.992;6.918;2022-07-06T14:32:39;1.45;;;0.40;;
27704;SDS011;15109;50.992;6.918;2022-07-06T14:36:00;0.32;;;0.28;;
27704;SDS011;15109;50.992;6.918;2022-07-06T14:39:22;0.13;;;0.13;;
27704;SDS011;15109;50.992;6.918;2022-07-06T14:42:43;0.82;;;0.25;;
27704;SDS011;15109;50.992;6.918;2022-07-06T14:46:04;0.40;;;0.30;;
27704;SDS011;15109;50.992;6.918;2022-07-06T14:49:25;0.45;;;0.40;;
27704;SDS011;15109;50.992;6.918;2022-07-06T14:52:46;0.28;;;0.20;;
27704;SDS011;15109;50.992;6.918;2022-07-06T14:56:07;1.30;;;0.43;;
27704;SDS011;15109;50.992;6.918;2022-07-06T14:59:29;1.00;;;0.57;;
27704;SDS011;15109;50.992;6.918;2022-07-06T15:02:50;0.20;;;0.20;;
27704;SDS011;15109;50.992;6.918;2022-07-06T15:06:11;0.30;;;0.30;;
27704;SDS011;15109;50.992;6.918;2022-07-06T15:09:33;0.10;;;0.10;;
27704;SDS011;15109;50.992;6.918;2022-07-06T15:12:54;1.25;;;0.32;;
27704;SDS011;15109;50.992;6.918;2022-07-06T15:16:15;0.10;;;0.10;;
27704;SDS011;15109;50.992;6.918;2022-07-06T15:19:36;0.77;;;0.45;;
27704;SDS011;15109;50.992;6.918;2022-07-06T15:22:57;0.63;;;0.28;;
27704;SDS011;15109;50.992;6.918;2022-07-06T15:26:18;0.28;;;0.28;;
27704;SDS011;15109;50.992;6.918;2022-07-06T15:29:40;0.30;;;0.30;;
27704;SDS011;15109;50.992;6.918;2022-07-06T15:33:01;0.88;;;0.45;;
27704;SDS011;15109;50.992;6.918;2022-07-06T15:36:22;0.52;;;0.30;;
27704;SDS011;15109;50.992;6.918;2022-07-06T15:39:43;0.40;;;0.40;;
27704;SDS011;15109;50.992;6.918;2022-07-06T15:43:04;0.30;;;0.30;;
27704;SDS011;15109;50.992;6.918;2022-07-06T15:46:25;0.65;;;0.32;;
27704;SDS011;15109;50.992;6.918;2022-07-06T15:49:47;0.25;;;0.25;;
27704;SDS011;15109;50.992;6.918;2022-07-06T15:53:09;0.95;;;0.28;;
27704;SDS011;15109;50.992;6.918;2022-07-06T15:56:30;0.30;;;0.30;;
27704;SDS011;15109;50.992;6.918;2022-07-06T15:59:51;0.20;;;0.20;;
27704;SDS011;15109;50.992;6.918;2022-07-06T16:03:12;0.30;;;0.30;;
27704;SDS011;15109;50.992;6.918;2022-07-06T16:06:34;0.38;;;0.30;;
27704;SDS011;15109;50.992;6.918;2022-07-06T16:09:55;0.20;;;0.20;;
27704;SDS011;15109;50.992;6.918;2022-07-06T16:13:17;0.57;;;0.30;;
27704;SDS011;15109;50.992;6.918;2022-07-06T16:16:40;1.13;;;0.40;;
27704;SDS011;15109;50.992;6.918;2022-07-06T16:20:02;0.65;;;0.35;;
27704;SDS011;15109;50.992;6.918;2022-07-06T16:23:24;0.17;;;0.17;;
27704;SDS011;15109;50.992;6.918;2022-07-06T16:26:45;0.35;;;0.22;;
27704;SDS011;15109;50.992;6.918;2022-07-06T16:30:07;0.40;;;0.20;;
27704;SDS011;15109;50.992;6.918;2022-07-06T16:33:29;0.30;;;0.22;;
27704;SDS011;15109;50.992;6.918;2022-07-06T16:36:55;0.20;;;0.20;;
27704;SDS011;15109;50.992;6.918;2022-07-06T16:40:16;0.15;;;0.15;;
27704;SDS011;15109;50.992;6.918;2022-07-06T16:43:38;0.52;;;0.28;;
27704;SDS011;15109;50.992;6.918;2022-07-06T16:46:59;0.30;;;0.30;;
27704;SDS011;15109;50.992;6.918;2022-07-06T16:50:20;0.85;;;0.28;;
27704;SDS011;15109;50.992;6.918;2022-07-06T16:53:41;1.33;;;0.63;;
27704;SDS011;15109;50.992;6.918;2022-07-06T16:57:02;0.50;;;0.25;;
27704;SDS011;15109;50.992;6.918;2022-07-06T17:00:24;1.65;;;0.43;;
27704;SDS011;15109;50.992;6.918;2022-07-06T17:03:45;2.35;;;0.43;;
27704;SDS011;15109;50.992;6.918;2022-07-06T17:07:06;0.30;;;0.28;;
27704;SDS011;15109;50.992;6.918;2022-07-06T17:10:27;3.45;;;0.60;;
27704;SDS011;15109;50.992;6.918;2022-07-06T17:13:48;0.20;;;0.20;;
27704;SDS011;15109;50.992;6.918;2022-07-06T17:17:11;0.75;;;0.40;;
27704;SDS011;15109;50.992;6.918;2022-07-06T17:20:32;0.75;;;0.50;;
27704;SDS011;15109;50.992;6.918;2022-07-06T17:23:53;0.17;;;0.17;;
27704;SDS011;15109;50.992;6.918;2022-07-06T17:27:16;1.23;;;0.47;;
27704;SDS011;15109;50.992;6.918;2022-07-06T17:30:37;0.63;;;0.40;;
27704;SDS011;15109;50.992;6.918;2022-07-06T17:33:59;0.20;;;0.20;;
27704;SDS011;15109;50.992;6.918;2022-07-06T17:37:20;0.45;;;0.20;;
27704;SDS011;15109;50.992;6.918;2022-07-06T17:40:41;0.28;;;0.28;;
27704;SDS011;15109;50.992;6.918;2022-07-06T17:44:03;0.30;;;0.30;;
27704;SDS011;15109;50.992;6.918;2022-07-06T17:47:24;0.85;;;0.40;;
27704;SDS011;15109;50.992;6.918;2022-07-06T17:50:45;0.55;;;0.40;;
27704;SDS011;15109;50.992;6.918;2022-07-06T17:54:06;0.88;;;0.40;;
27704;SDS011;15109;50.992;6.918;2022-07-06T17:57:27;0.73;;;0.30;;
27704;SDS011;15109;50.992;6.918;2022-07-06T18:00:48;0.35;;;0.32;;
27704;SDS011;15109;50.992;6.918;2022-07-06T18:04:09;0.38;;;0.30;;
27704;SDS011;15109;50.992;6.918;2022-07-06T18:07:30;0.47;;;0.22;;
27704;SDS011;15109;50.992;6.918;2022-07-06T18:10:51;3.20;;;0.68;;
27704;SDS011;15109;50.992;6.918;2022-07-06T18:14:13;0.20;;;0.20;;
27704;SDS011;15109;50.992;6.918;2022-07-06T18:17:34;1.08;;;0.40;;
27704;SDS011;15109;50.992;6.918;2022-07-06T18:20:55;0.43;;;0.30;;
27704;SDS011;15109;50.992;6.918;2022-07-06T18:24:17;0.10;;;0.10;;
27704;SDS011;15109;50.992;6.918;2022-07-06T18:27:38;1.30;;;0.40;;
27704;SDS011;15109;50.992;6.918;2022-07-06T18:31:00;0.38;;;0.32;;
27704;SDS011;15109;50.992;6.918;2022-07-06T18:34:21;1.15;;;0.40;;
27704;SDS011;15109;50.992;6.918;2022-07-06T18:37:42;0.10;;;0.10;;
27704;SDS011;15109;50.992;6.918;2022-07-06T18:41:03;0.38;;;0.28;;
27704;SDS011;15109;50.992;6.918;2022-07-06T18:44:25;0.15;;;0.15;;
27704;SDS011;15109;50.992;6.918;2022-07-06T18:47:46;0.30;;;0.30;;
27704;SDS011;15109;50.992;6.918;2022-07-06T18:51:07;0.73;;;0.40;;
27704;SDS011;15109;50.992;6.918;2022-07-06T18:54:28;0.38;;;0.22;;
27704;SDS011;15109;50.992;6.918;2022-07-06T18:57:49;0.98;;;0.30;;
27704;SDS011;15109;50.992;6.918;2022-07-06T19:01:10;0.50;;;0.30;;
27704;SDS011;15109;50.992;6.918;2022-07-06T19:04:31;0.75;;;0.50;;
27704;SDS011;15109;50.992;6.918;2022-07-06T19:07:52;1.33;;;0.38;;
27704;SDS011;15109;50.992;6.918;2022-07-06T19:11:13;1.25;;;0.30;;
27704;SDS011;15109;50.992;6.918;2022-07-06T19:14:34;0.15;;;0.15;;
27704;SDS011;15109;50.992;6.918;2022-07-06T19:17:55;0.20;;;0.13;;
27704;SDS011;15109;50.992;6.918;2022-07-06T19:21:19;1.38;;;0.40;;
27704;SDS011;15109;50.992;6.918;2022-07-06T19:24:40;0.10;;;0.10;;
27704;SDS011;15109;50.992;6.918;2022-07-06T19:28:01;0.20;;;0.20;;
27704;SDS011;15109;50.992;6.918;2022-07-06T19:31:22;0.20;;;0.20;;
27704;SDS011;15109;50.992;6.918;2022-07-06T19:34:43;2.17;;;0.52;;
27704;SDS011;15109;50.992;6.918;2022-07-06T19:38:04;0.25;;;0.20;;
27704;SDS011;15109;50.992;6.918;2022-07-06T19:41:25;1.45;;;0.30;;
27704;SDS011;15109;50.992;6.918;2022-07-06T19:44:46;0.60;;;0.30;;
27704;SDS011;15109;50.992;6.918;2022-07-06T19:48:07;0.60;;;0.30;;
27704;SDS011;15109;50.992;6.918;2022-07-06T19:51:29;1.00;;;0.50;;
27704;SDS011;15109;50.992;6.918;2022-07-06T19:54:50;0.40;;;0.20;;
27704;SDS011;15109;50.992;6.918;2022-07-06T19:58:11;0.85;;;0.43;;
27704;SDS011;15109;50.992;6.918;2022-07-06T20:01:32;0.50;;;0.28;;
27704;SDS011;15109;50.992;6.918;2022-07-06T20:04:53;0.82;;;0.40;;
27704;SDS011;15109;50.992;6.918;2022-07-06T20:08:15;0.30;;;0.20;;
27704;SDS011;15109;50.992;6.918;2022-07-06T20:11:36;0.30;;;0.20;;
27704;SDS011;15109;50.992;6.918;2022-07-06T20:14:57;0.17;;;0.17;;
27704;SDS011;15109;50.992;6.918;2022-07-06T20:18:18;0.45;;;0.38;;
27704;SDS011;15109;50.992;6.918;2022-07-06T20:21:40;0.32;;;0.25;;
27704;SDS011;15109;50.992;6.918;2022-07-06T20:25:01;0.30;;;0.25;;
27704;SDS011;15109;50.992;6.918;2022-07-06T20:28:22;0.82;;;0.38;;
27704;SDS011;15109;50.992;6.918;2022-07-06T20:31:43;0.20;;;0.20;;
27704;SDS011;15109;50.992;6.918;2022-07-06T20:35:05;0.40;;;0.40;;